sensor_id;sensor_type;location;lat;lon;timestamp;P1;durP1;ratioP1;P2;durP2;ratioP2
72109;SDS011;59983;52.010;5.420;2022-12-07T00:01:18;12.40;;;11.45;;
72109;SDS011;59983;52.010;5.420;2022-12-07T00:03:47;12.32;;;11.40;;
72109;SDS011;59983;52.010;5.420;2022-12-07T00:06:16;12.03;;;11.03;;
72109;SDS011;59983;52.010;5.420;2022-12-07T00:08:43;11.77;;;11.05;;
72109;SDS011;59983;52.010;5.420;2022-12-07T00:13:39;11.73;;;10.88;;
72109;SDS011;59983;52.010;5.420;2022-12-07T00:16:07;12.43;;;11.45;;
72109;SDS011;59983;52.010;5.420;2022-12-07T00:18:36;10.83;;;10.30;;
72109;SDS011;59983;52.010;5.420;2022-12-07T00:21:06;12.02;;;11.07;;
72109;SDS011;59983;52.010;5.420;2022-12-07T00:23:36;11.05;;;10.35;;
72109;SDS011;59983;52.010;5.420;2022-12-07T00:26:06;11.70;;;10.63;;
72109;SDS011;59983;52.010;5.420;2022-12-07T00:28:34;11.02;;;10.32;;
72109;SDS011;59983;52.010;5.420;2022-12-07T00:31:04;12.40;;;11.30;;
72109;SDS011;59983;52.010;5.420;2022-12-07T00:33:35;11.60;;;10.82;;
72109;SDS011;59983;52.010;5.420;2022-12-07T00:36:03;11.60;;;10.65;;
72109;SDS011;59983;52.010;5.420;2022-12-07T00:38:33;12.68;;;11.80;;
72109;SDS011;59983;52.010;5.420;2022-12-07T00:41:02;11.65;;;10.75;;
72109;SDS011;59983;52.010;5.420;2022-12-07T00:43:35;11.70;;;10.80;;
72109;SDS011;59983;52.010;5.420;2022-12-07T00:46:01;11.18;;;10.38;;
72109;SDS011;59983;52.010;5.420;2022-12-07T00:48:28;10.50;;;9.90;;
72109;SDS011;59983;52.010;5.420;2022-12-07T00:50:55;10.57;;;9.98;;
72109;SDS011;59983;52.010;5.420;2022-12-07T00:53:21;10.85;;;9.88;;
72109;SDS011;59983;52.010;5.420;2022-12-07T00:55:48;12.13;;;11.20;;
72109;SDS011;59983;52.010;5.420;2022-12-07T00:58:14;9.85;;;9.25;;
72109;SDS011;59983;52.010;5.420;2022-12-07T01:00:41;9.90;;;8.95;;
72109;SDS011;59983;52.010;5.420;2022-12-07T01:03:10;11.57;;;10.77;;
72109;SDS011;59983;52.010;5.420;2022-12-07T01:05:38;9.73;;;9.20;;
72109;SDS011;59983;52.010;5.420;2022-12-07T01:08:05;11.20;;;10.40;;
72109;SDS011;59983;52.010;5.420;2022-12-07T01:10:32;11.98;;;11.10;;
72109;SDS011;59983;52.010;5.420;2022-12-07T01:12:59;11.20;;;10.43;;
72109;SDS011;59983;52.010;5.420;2022-12-07T01:15:26;10.63;;;9.75;;
72109;SDS011;59983;52.010;5.420;2022-12-07T01:17:53;10.25;;;9.65;;
72109;SDS011;59983;52.010;5.420;2022-12-07T01:20:20;10.87;;;9.90;;
72109;SDS011;59983;52.010;5.420;2022-12-07T01:22:47;10.63;;;9.88;;
72109;SDS011;59983;52.010;5.420;2022-12-07T01:25:14;10.55;;;9.75;;
72109;SDS011;59983;52.010;5.420;2022-12-07T01:27:41;10.68;;;10.07;;
72109;SDS011;59983;52.010;5.420;2022-12-07T01:30:08;10.93;;;10.13;;
72109;SDS011;59983;52.010;5.420;2022-12-07T01:32:36;10.47;;;9.87;;
72109;SDS011;59983;52.010;5.420;2022-12-07T01:35:03;10.18;;;9.68;;
72109;SDS011;59983;52.010;5.420;2022-12-07T01:37:33;11.90;;;10.98;;
72109;SDS011;59983;52.010;5.420;2022-12-07T01:40:02;12.15;;;10.48;;
72109;SDS011;59983;52.010;5.420;2022-12-07T01:42:30;11.63;;;10.85;;
72109;SDS011;59983;52.010;5.420;2022-12-07T01:47:51;11.77;;;10.23;;
72109;SDS011;59983;52.010;5.420;2022-12-07T01:50:22;11.70;;;10.63;;
72109;SDS011;59983;52.010;5.420;2022-12-07T01:52:51;11.52;;;10.82;;
72109;SDS011;59983;52.010;5.420;2022-12-07T01:55:21;10.52;;;9.82;;
72109;SDS011;59983;52.010;5.420;2022-12-07T01:57:49;11.07;;;10.23;;
72109;SDS011;59983;52.010;5.420;2022-12-07T02:00:18;11.02;;;10.23;;
72109;SDS011;59983;52.010;5.420;2022-12-07T02:02:51;10.35;;;9.57;;
72109;SDS011;59983;52.010;5.420;2022-12-07T02:05:21;11.88;;;11.07;;
72109;SDS011;59983;52.010;5.420;2022-12-07T02:07:51;11.90;;;10.82;;
72109;SDS011;59983;52.010;5.420;2022-12-07T02:10:22;9.90;;;9.00;;
72109;SDS011;59983;52.010;5.420;2022-12-07T02:12:52;11.27;;;10.15;;
72109;SDS011;59983;52.010;5.420;2022-12-07T02:15:25;9.73;;;9.10;;
72109;SDS011;59983;52.010;5.420;2022-12-07T02:18:02;11.00;;;10.30;;
72109;SDS011;59983;52.010;5.420;2022-12-07T02:20:30;12.20;;;11.25;;
72109;SDS011;59983;52.010;5.420;2022-12-07T02:28:31;10.57;;;9.88;;
72109;SDS011;59983;52.010;5.420;2022-12-07T02:31:03;10.95;;;10.15;;
72109;SDS011;59983;52.010;5.420;2022-12-07T02:33:43;10.65;;;9.75;;
72109;SDS011;59983;52.010;5.420;2022-12-07T02:36:18;10.17;;;9.43;;
72109;SDS011;59983;52.010;5.420;2022-12-07T02:38:59;10.73;;;9.98;;
72109;SDS011;59983;52.010;5.420;2022-12-07T02:41:38;10.02;;;9.02;;
72109;SDS011;59983;52.010;5.420;2022-12-07T02:44:13;12.43;;;8.98;;
72109;SDS011;59983;52.010;5.420;2022-12-07T02:46:44;10.23;;;9.60;;
72109;SDS011;59983;52.010;5.420;2022-12-07T02:49:17;10.43;;;9.53;;
72109;SDS011;59983;52.010;5.420;2022-12-07T02:51:45;10.15;;;9.43;;
72109;SDS011;59983;52.010;5.420;2022-12-07T02:54:13;9.85;;;8.98;;
72109;SDS011;59983;52.010;5.420;2022-12-07T03:02:56;10.17;;;9.37;;
72109;SDS011;59983;52.010;5.420;2022-12-07T03:08:44;9.68;;;9.18;;
72109;SDS011;59983;52.010;5.420;2022-12-07T03:11:21;9.65;;;9.05;;
72109;SDS011;59983;52.010;5.420;2022-12-07T03:14:03;9.48;;;8.93;;
72109;SDS011;59983;52.010;5.420;2022-12-07T03:17:15;10.83;;;9.50;;
72109;SDS011;59983;52.010;5.420;2022-12-07T03:19:39;10.30;;;9.40;;
72109;SDS011;59983;52.010;5.420;2022-12-07T03:22:09;10.45;;;9.65;;
72109;SDS011;59983;52.010;5.420;2022-12-07T03:24:52;10.32;;;9.50;;
72109;SDS011;59983;52.010;5.420;2022-12-07T03:27:24;11.13;;;10.32;;
72109;SDS011;59983;52.010;5.420;2022-12-07T03:35:11;9.48;;;8.98;;
72109;SDS011;59983;52.010;5.420;2022-12-07T03:37:57;10.23;;;9.48;;
72109;SDS011;59983;52.010;5.420;2022-12-07T03:40:30;10.27;;;9.38;;
72109;SDS011;59983;52.010;5.420;2022-12-07T03:43:03;10.90;;;9.93;;
72109;SDS011;59983;52.010;5.420;2022-12-07T03:45:56;10.25;;;9.65;;
72109;SDS011;59983;52.010;5.420;2022-12-07T03:48:26;10.45;;;9.45;;
72109;SDS011;59983;52.010;5.420;2022-12-07T03:53:58;9.38;;;8.98;;
72109;SDS011;59983;52.010;5.420;2022-12-07T03:56:47;8.40;;;7.97;;
72109;SDS011;59983;52.010;5.420;2022-12-07T03:59:15;9.25;;;8.65;;
72109;SDS011;59983;52.010;5.420;2022-12-07T04:01:43;10.23;;;9.52;;
72109;SDS011;59983;52.010;5.420;2022-12-07T04:04:11;9.13;;;8.63;;
72109;SDS011;59983;52.010;5.420;2022-12-07T04:06:37;9.73;;;9.13;;
72109;SDS011;59983;52.010;5.420;2022-12-07T04:09:04;10.17;;;9.17;;
72109;SDS011;59983;52.010;5.420;2022-12-07T04:11:30;10.98;;;10.00;;
72109;SDS011;59983;52.010;5.420;2022-12-07T04:13:57;10.48;;;9.80;;
72109;SDS011;59983;52.010;5.420;2022-12-07T04:16:42;9.50;;;9.00;;
72109;SDS011;59983;52.010;5.420;2022-12-07T04:19:10;9.80;;;9.20;;
72109;SDS011;59983;52.010;5.420;2022-12-07T04:21:37;12.37;;;11.10;;
72109;SDS011;59983;52.010;5.420;2022-12-07T04:24:03;11.57;;;10.68;;
72109;SDS011;59983;52.010;5.420;2022-12-07T04:26:30;9.75;;;8.88;;
72109;SDS011;59983;52.010;5.420;2022-12-07T04:28:57;10.20;;;9.50;;
72109;SDS011;59983;52.010;5.420;2022-12-07T04:31:28;9.70;;;8.95;;
72109;SDS011;59983;52.010;5.420;2022-12-07T04:33:55;11.47;;;9.50;;
72109;SDS011;59983;52.010;5.420;2022-12-07T04:36:21;9.30;;;8.60;;
72109;SDS011;59983;52.010;5.420;2022-12-07T04:38:48;11.10;;;10.18;;
72109;SDS011;59983;52.010;5.420;2022-12-07T04:41:14;10.52;;;9.93;;
72109;SDS011;59983;52.010;5.420;2022-12-07T04:43:41;10.23;;;9.57;;
72109;SDS011;59983;52.010;5.420;2022-12-07T04:46:07;10.00;;;9.30;;
72109;SDS011;59983;52.010;5.420;2022-12-07T04:48:34;10.50;;;9.35;;
72109;SDS011;59983;52.010;5.420;2022-12-07T04:51:01;10.95;;;9.02;;
72109;SDS011;59983;52.010;5.420;2022-12-07T04:53:29;9.15;;;8.45;;
72109;SDS011;59983;52.010;5.420;2022-12-07T04:55:56;8.90;;;8.25;;
72109;SDS011;59983;52.010;5.420;2022-12-07T04:58:22;9.83;;;9.20;;
72109;SDS011;59983;52.010;5.420;2022-12-07T05:00:49;9.88;;;8.93;;
72109;SDS011;59983;52.010;5.420;2022-12-07T05:03:15;10.57;;;9.63;;
72109;SDS011;59983;52.010;5.420;2022-12-07T05:05:41;9.52;;;8.68;;
72109;SDS011;59983;52.010;5.420;2022-12-07T05:08:08;9.15;;;8.35;;
72109;SDS011;59983;52.010;5.420;2022-12-07T05:10:35;11.73;;;9.13;;
72109;SDS011;59983;52.010;5.420;2022-12-07T05:13:01;9.00;;;8.18;;
72109;SDS011;59983;52.010;5.420;2022-12-07T05:15:28;7.88;;;7.25;;
72109;SDS011;59983;52.010;5.420;2022-12-07T05:17:54;9.27;;;8.40;;
72109;SDS011;59983;52.010;5.420;2022-12-07T05:20:21;9.25;;;7.40;;
72109;SDS011;59983;52.010;5.420;2022-12-07T05:22:47;7.80;;;7.13;;
72109;SDS011;59983;52.010;5.420;2022-12-07T05:25:14;8.93;;;8.25;;
72109;SDS011;59983;52.010;5.420;2022-12-07T05:27:40;8.23;;;7.50;;
72109;SDS011;59983;52.010;5.420;2022-12-07T05:30:07;8.35;;;7.75;;
72109;SDS011;59983;52.010;5.420;2022-12-07T05:32:34;8.50;;;7.32;;
72109;SDS011;59983;52.010;5.420;2022-12-07T05:35:00;11.63;;;9.07;;
72109;SDS011;59983;52.010;5.420;2022-12-07T05:37:26;8.07;;;7.53;;
72109;SDS011;59983;52.010;5.420;2022-12-07T05:39:53;8.43;;;7.28;;
72109;SDS011;59983;52.010;5.420;2022-12-07T05:42:19;8.25;;;7.75;;
72109;SDS011;59983;52.010;5.420;2022-12-07T05:44:46;7.72;;;7.13;;
72109;SDS011;59983;52.010;5.420;2022-12-07T05:47:13;7.23;;;6.70;;
72109;SDS011;59983;52.010;5.420;2022-12-07T05:49:41;8.18;;;7.68;;
72109;SDS011;59983;52.010;5.420;2022-12-07T05:52:07;8.88;;;7.80;;
72109;SDS011;59983;52.010;5.420;2022-12-07T05:54:34;12.35;;;11.25;;
72109;SDS011;59983;52.010;5.420;2022-12-07T05:57:00;15.20;;;13.82;;
72109;SDS011;59983;52.010;5.420;2022-12-07T05:59:27;12.07;;;8.63;;
72109;SDS011;59983;52.010;5.420;2022-12-07T06:01:55;9.57;;;8.73;;
72109;SDS011;59983;52.010;5.420;2022-12-07T06:04:23;10.07;;;8.32;;
72109;SDS011;59983;52.010;5.420;2022-12-07T06:06:51;9.88;;;9.18;;
72109;SDS011;59983;52.010;5.420;2022-12-07T06:09:18;8.85;;;8.27;;
72109;SDS011;59983;52.010;5.420;2022-12-07T06:11:47;8.37;;;7.87;;
72109;SDS011;59983;52.010;5.420;2022-12-07T06:14:32;14.98;;;13.82;;
72109;SDS011;59983;52.010;5.420;2022-12-07T06:16:59;11.75;;;10.65;;
72109;SDS011;59983;52.010;5.420;2022-12-07T06:19:26;18.67;;;17.48;;
72109;SDS011;59983;52.010;5.420;2022-12-07T06:21:52;18.63;;;17.23;;
72109;SDS011;59983;52.010;5.420;2022-12-07T06:24:19;10.47;;;9.70;;
72109;SDS011;59983;52.010;5.420;2022-12-07T06:26:46;10.05;;;9.48;;
72109;SDS011;59983;52.010;5.420;2022-12-07T06:29:13;8.27;;;7.60;;
72109;SDS011;59983;52.010;5.420;2022-12-07T06:31:40;8.35;;;7.70;;
72109;SDS011;59983;52.010;5.420;2022-12-07T06:34:11;8.35;;;7.65;;
72109;SDS011;59983;52.010;5.420;2022-12-07T06:36:40;9.43;;;8.83;;
72109;SDS011;59983;52.010;5.420;2022-12-07T06:39:07;8.20;;;7.80;;
72109;SDS011;59983;52.010;5.420;2022-12-07T06:41:38;8.45;;;7.75;;
72109;SDS011;59983;52.010;5.420;2022-12-07T06:44:05;8.32;;;7.72;;
72109;SDS011;59983;52.010;5.420;2022-12-07T06:46:32;7.78;;;7.28;;
72109;SDS011;59983;52.010;5.420;2022-12-07T06:49:01;8.10;;;7.63;;
72109;SDS011;59983;52.010;5.420;2022-12-07T06:51:29;8.45;;;7.75;;
72109;SDS011;59983;52.010;5.420;2022-12-07T06:53:56;7.07;;;6.57;;
72109;SDS011;59983;52.010;5.420;2022-12-07T06:56:22;8.43;;;7.72;;
72109;SDS011;59983;52.010;5.420;2022-12-07T06:58:49;7.85;;;7.22;;
72109;SDS011;59983;52.010;5.420;2022-12-07T07:01:17;7.10;;;6.60;;
72109;SDS011;59983;52.010;5.420;2022-12-07T07:03:45;7.88;;;7.22;;
72109;SDS011;59983;52.010;5.420;2022-12-07T07:06:12;7.40;;;7.03;;
72109;SDS011;59983;52.010;5.420;2022-12-07T07:08:40;8.73;;;7.93;;
72109;SDS011;59983;52.010;5.420;2022-12-07T07:11:07;9.38;;;8.77;;
72109;SDS011;59983;52.010;5.420;2022-12-07T07:13:35;8.63;;;8.13;;
72109;SDS011;59983;52.010;5.420;2022-12-07T07:16:02;8.20;;;7.45;;
72109;SDS011;59983;52.010;5.420;2022-12-07T07:18:29;8.60;;;8.00;;
72109;SDS011;59983;52.010;5.420;2022-12-07T07:20:55;8.27;;;7.72;;
72109;SDS011;59983;52.010;5.420;2022-12-07T07:23:22;8.38;;;7.90;;
72109;SDS011;59983;52.010;5.420;2022-12-07T07:25:48;9.27;;;8.67;;
72109;SDS011;59983;52.010;5.420;2022-12-07T07:28:15;8.45;;;7.80;;
72109;SDS011;59983;52.010;5.420;2022-12-07T07:30:42;8.45;;;7.72;;
72109;SDS011;59983;52.010;5.420;2022-12-07T07:33:09;8.90;;;7.55;;
72109;SDS011;59983;52.010;5.420;2022-12-07T07:35:36;8.38;;;7.97;;
72109;SDS011;59983;52.010;5.420;2022-12-07T07:38:03;7.20;;;6.63;;
72109;SDS011;59983;52.010;5.420;2022-12-07T07:40:29;8.75;;;8.30;;
72109;SDS011;59983;52.010;5.420;2022-12-07T07:42:56;9.38;;;8.50;;
72109;SDS011;59983;52.010;5.420;2022-12-07T07:45:24;8.70;;;8.10;;
72109;SDS011;59983;52.010;5.420;2022-12-07T07:47:51;9.20;;;8.60;;
72109;SDS011;59983;52.010;5.420;2022-12-07T07:50:19;9.10;;;8.60;;
72109;SDS011;59983;52.010;5.420;2022-12-07T07:52:45;10.60;;;9.90;;
72109;SDS011;59983;52.010;5.420;2022-12-07T07:55:12;9.85;;;9.00;;
72109;SDS011;59983;52.010;5.420;2022-12-07T07:57:39;8.80;;;8.15;;
72109;SDS011;59983;52.010;5.420;2022-12-07T08:00:10;11.18;;;10.43;;
72109;SDS011;59983;52.010;5.420;2022-12-07T08:02:38;11.87;;;9.63;;
72109;SDS011;59983;52.010;5.420;2022-12-07T08:05:05;10.32;;;9.82;;
72109;SDS011;59983;52.010;5.420;2022-12-07T08:07:33;9.68;;;9.18;;
72109;SDS011;59983;52.010;5.420;2022-12-07T08:09:59;10.40;;;9.32;;
72109;SDS011;59983;52.010;5.420;2022-12-07T08:12:26;10.18;;;9.52;;
72109;SDS011;59983;52.010;5.420;2022-12-07T08:14:53;10.13;;;9.63;;
72109;SDS011;59983;52.010;5.420;2022-12-07T08:17:19;9.57;;;8.98;;
72109;SDS011;59983;52.010;5.420;2022-12-07T08:19:46;9.25;;;8.85;;
72109;SDS011;59983;52.010;5.420;2022-12-07T08:22:12;9.50;;;8.98;;
72109;SDS011;59983;52.010;5.420;2022-12-07T08:24:39;9.75;;;9.05;;
72109;SDS011;59983;52.010;5.420;2022-12-07T08:27:05;10.33;;;9.63;;
72109;SDS011;59983;52.010;5.420;2022-12-07T08:29:32;9.88;;;9.05;;
72109;SDS011;59983;52.010;5.420;2022-12-07T08:31:58;9.95;;;9.45;;
72109;SDS011;59983;52.010;5.420;2022-12-07T08:34:33;9.48;;;8.93;;
72109;SDS011;59983;52.010;5.420;2022-12-07T08:37:00;10.20;;;9.32;;
72109;SDS011;59983;52.010;5.420;2022-12-07T08:39:26;10.43;;;9.67;;
72109;SDS011;59983;52.010;5.420;2022-12-07T08:41:57;9.75;;;8.95;;
72109;SDS011;59983;52.010;5.420;2022-12-07T08:44:24;10.93;;;10.05;;
72109;SDS011;59983;52.010;5.420;2022-12-07T08:46:55;13.20;;;10.00;;
72109;SDS011;59983;52.010;5.420;2022-12-07T08:49:34;12.15;;;10.95;;
72109;SDS011;59983;52.010;5.420;2022-12-07T08:52:05;10.83;;;9.87;;
72109;SDS011;59983;52.010;5.420;2022-12-07T08:54:33;10.57;;;9.52;;
72109;SDS011;59983;52.010;5.420;2022-12-07T08:57:03;7.57;;;6.88;;
72109;SDS011;59983;52.010;5.420;2022-12-07T08:59:30;8.32;;;6.95;;
72109;SDS011;59983;52.010;5.420;2022-12-07T09:01:58;8.38;;;7.72;;
72109;SDS011;59983;52.010;5.420;2022-12-07T09:04:25;8.63;;;8.13;;
72109;SDS011;59983;52.010;5.420;2022-12-07T09:06:53;7.43;;;7.13;;
72109;SDS011;59983;52.010;5.420;2022-12-07T09:09:20;8.48;;;7.63;;
72109;SDS011;59983;52.010;5.420;2022-12-07T09:11:47;9.93;;;8.85;;
72109;SDS011;59983;52.010;5.420;2022-12-07T09:14:13;8.48;;;7.75;;
72109;SDS011;59983;52.010;5.420;2022-12-07T09:16:40;10.63;;;6.53;;
72109;SDS011;59983;52.010;5.420;2022-12-07T09:19:07;9.15;;;6.90;;
72109;SDS011;59983;52.010;5.420;2022-12-07T09:21:34;8.48;;;7.75;;
72109;SDS011;59983;52.010;5.420;2022-12-07T09:24:00;10.88;;;9.98;;
72109;SDS011;59983;52.010;5.420;2022-12-07T09:26:27;11.70;;;8.50;;
72109;SDS011;59983;52.010;5.420;2022-12-07T09:28:53;8.87;;;7.80;;
72109;SDS011;59983;52.010;5.420;2022-12-07T09:31:20;8.00;;;7.55;;
72109;SDS011;59983;52.010;5.420;2022-12-07T09:33:56;7.60;;;7.10;;
72109;SDS011;59983;52.010;5.420;2022-12-07T09:36:27;8.88;;;8.15;;
72109;SDS011;59983;52.010;5.420;2022-12-07T09:38:54;8.15;;;7.22;;
72109;SDS011;59983;52.010;5.420;2022-12-07T09:41:21;7.50;;;6.97;;
72109;SDS011;59983;52.010;5.420;2022-12-07T09:43:50;8.82;;;8.05;;
72109;SDS011;59983;52.010;5.420;2022-12-07T09:46:17;8.32;;;7.55;;
72109;SDS011;59983;52.010;5.420;2022-12-07T09:48:45;9.43;;;7.88;;
72109;SDS011;59983;52.010;5.420;2022-12-07T09:51:15;8.15;;;7.45;;
72109;SDS011;59983;52.010;5.420;2022-12-07T09:53:50;7.50;;;7.00;;
72109;SDS011;59983;52.010;5.420;2022-12-07T09:56:18;8.55;;;6.43;;
72109;SDS011;59983;52.010;5.420;2022-12-07T09:58:45;12.35;;;8.23;;
72109;SDS011;59983;52.010;5.420;2022-12-07T10:01:13;8.48;;;7.82;;
72109;SDS011;59983;52.010;5.420;2022-12-07T10:03:48;8.75;;;8.05;;
72109;SDS011;59983;52.010;5.420;2022-12-07T10:06:17;6.20;;;5.80;;
72109;SDS011;59983;52.010;5.420;2022-12-07T10:08:44;6.85;;;6.25;;
72109;SDS011;59983;52.010;5.420;2022-12-07T10:11:10;9.30;;;7.15;;
72109;SDS011;59983;52.010;5.420;2022-12-07T10:13:41;8.93;;;6.43;;
72109;SDS011;59983;52.010;5.420;2022-12-07T10:18:54;7.77;;;7.07;;
72109;SDS011;59983;52.010;5.420;2022-12-07T10:21:30;8.13;;;6.50;;
72109;SDS011;59983;52.010;5.420;2022-12-07T10:24:05;7.30;;;6.40;;
72109;SDS011;59983;52.010;5.420;2022-12-07T10:29:16;6.88;;;6.30;;
72109;SDS011;59983;52.010;5.420;2022-12-07T10:31:56;7.07;;;6.53;;
72109;SDS011;59983;52.010;5.420;2022-12-07T10:34:26;7.93;;;7.13;;
72109;SDS011;59983;52.010;5.420;2022-12-07T10:37:15;8.93;;;7.53;;
72109;SDS011;59983;52.010;5.420;2022-12-07T10:39:46;8.00;;;7.30;;
72109;SDS011;59983;52.010;5.420;2022-12-07T10:42:21;6.18;;;5.85;;
72109;SDS011;59983;52.010;5.420;2022-12-07T10:44:49;8.80;;;7.00;;
72109;SDS011;59983;52.010;5.420;2022-12-07T10:55:46;6.90;;;6.28;;
72109;SDS011;59983;52.010;5.420;2022-12-07T11:01:13;7.65;;;7.05;;
72109;SDS011;59983;52.010;5.420;2022-12-07T11:09:47;9.18;;;6.20;;
72109;SDS011;59983;52.010;5.420;2022-12-07T11:15:53;6.70;;;6.30;;
72109;SDS011;59983;52.010;5.420;2022-12-07T11:18:46;8.02;;;6.85;;
72109;SDS011;59983;52.010;5.420;2022-12-07T11:21:24;6.63;;;6.00;;
72109;SDS011;59983;52.010;5.420;2022-12-07T11:29:34;7.03;;;6.50;;
72109;SDS011;59983;52.010;5.420;2022-12-07T11:32:34;6.47;;;6.18;;
72109;SDS011;59983;52.010;5.420;2022-12-07T11:38:00;7.03;;;6.43;;
72109;SDS011;59983;52.010;5.420;2022-12-07T11:40:34;8.73;;;6.60;;
72109;SDS011;59983;52.010;5.420;2022-12-07T11:43:07;10.00;;;6.20;;
72109;SDS011;59983;52.010;5.420;2022-12-07T11:45:40;5.45;;;4.90;;
72109;SDS011;59983;52.010;5.420;2022-12-07T11:48:10;7.35;;;6.68;;
72109;SDS011;59983;52.010;5.420;2022-12-07T11:50:48;6.38;;;5.72;;
72109;SDS011;59983;52.010;5.420;2022-12-07T11:53:24;9.03;;;5.23;;
72109;SDS011;59983;52.010;5.420;2022-12-07T11:55:57;7.53;;;5.50;;
72109;SDS011;59983;52.010;5.420;2022-12-07T12:03:50;6.70;;;6.30;;
72109;SDS011;59983;52.010;5.420;2022-12-07T12:06:19;5.90;;;5.47;;
72109;SDS011;59983;52.010;5.420;2022-12-07T12:08:55;7.00;;;5.95;;
72109;SDS011;59983;52.010;5.420;2022-12-07T12:25:37;6.47;;;6.10;;
72109;SDS011;59983;52.010;5.420;2022-12-07T12:28:19;5.95;;;5.55;;
72109;SDS011;59983;52.010;5.420;2022-12-07T12:30:47;7.28;;;5.70;;
72109;SDS011;59983;52.010;5.420;2022-12-07T12:33:31;7.40;;;5.83;;
72109;SDS011;59983;52.010;5.420;2022-12-07T12:39:10;7.70;;;6.13;;
72109;SDS011;59983;52.010;5.420;2022-12-07T12:51:51;6.13;;;5.70;;
72109;SDS011;59983;52.010;5.420;2022-12-07T13:01:47;6.90;;;6.43;;
72109;SDS011;59983;52.010;5.420;2022-12-07T13:04:23;9.98;;;5.40;;
72109;SDS011;59983;52.010;5.420;2022-12-07T13:06:53;5.95;;;5.65;;
72109;SDS011;59983;52.010;5.420;2022-12-07T13:09:24;6.55;;;6.05;;
72109;SDS011;59983;52.010;5.420;2022-12-07T13:12:00;6.63;;;5.50;;
72109;SDS011;59983;52.010;5.420;2022-12-07T13:14:40;6.10;;;5.55;;
72109;SDS011;59983;52.010;5.420;2022-12-07T13:17:08;5.97;;;5.43;;
72109;SDS011;59983;52.010;5.420;2022-12-07T13:24:57;5.87;;;5.40;;
72109;SDS011;59983;52.010;5.420;2022-12-07T13:27:26;5.93;;;5.45;;
72109;SDS011;59983;52.010;5.420;2022-12-07T13:29:53;9.68;;;5.35;;
72109;SDS011;59983;52.010;5.420;2022-12-07T13:32:24;5.53;;;5.20;;
72109;SDS011;59983;52.010;5.420;2022-12-07T13:34:54;4.97;;;4.60;;
72109;SDS011;59983;52.010;5.420;2022-12-07T13:37:24;5.50;;;5.10;;
72109;SDS011;59983;52.010;5.420;2022-12-07T13:39:54;6.45;;;5.93;;
72109;SDS011;59983;52.010;5.420;2022-12-07T13:44:53;7.00;;;5.90;;
72109;SDS011;59983;52.010;5.420;2022-12-07T13:47:22;7.05;;;5.53;;
72109;SDS011;59983;52.010;5.420;2022-12-07T13:49:52;6.20;;;5.77;;
72109;SDS011;59983;52.010;5.420;2022-12-07T13:52:22;5.70;;;5.30;;
72109;SDS011;59983;52.010;5.420;2022-12-07T13:54:58;5.28;;;4.95;;
72109;SDS011;59983;52.010;5.420;2022-12-07T13:57:28;5.50;;;4.72;;
72109;SDS011;59983;52.010;5.420;2022-12-07T13:59:57;5.78;;;5.25;;
72109;SDS011;59983;52.010;5.420;2022-12-07T14:02:34;6.87;;;5.30;;
72109;SDS011;59983;52.010;5.420;2022-12-07T14:05:09;5.82;;;5.57;;
72109;SDS011;59983;52.010;5.420;2022-12-07T14:08:40;5.03;;;4.53;;
72109;SDS011;59983;52.010;5.420;2022-12-07T14:10:39;5.90;;;5.40;;
72109;SDS011;59983;52.010;5.420;2022-12-07T14:16:00;5.63;;;5.07;;
72109;SDS011;59983;52.010;5.420;2022-12-07T14:21:15;6.25;;;5.70;;
72109;SDS011;59983;52.010;5.420;2022-12-07T14:23:47;5.80;;;5.30;;
72109;SDS011;59983;52.010;5.420;2022-12-07T14:26:41;6.22;;;4.75;;
72109;SDS011;59983;52.010;5.420;2022-12-07T14:31:54;7.25;;;4.90;;
72109;SDS011;59983;52.010;5.420;2022-12-07T14:34:21;5.00;;;4.63;;
72109;SDS011;59983;52.010;5.420;2022-12-07T14:36:48;5.68;;;5.22;;
72109;SDS011;59983;52.010;5.420;2022-12-07T14:39:15;6.78;;;5.65;;
72109;SDS011;59983;52.010;5.420;2022-12-07T14:41:41;5.23;;;4.97;;
72109;SDS011;59983;52.010;5.420;2022-12-07T14:44:18;5.97;;;5.40;;
72109;SDS011;59983;52.010;5.420;2022-12-07T14:46:50;5.03;;;4.80;;
72109;SDS011;59983;52.010;5.420;2022-12-07T14:49:37;5.50;;;5.13;;
72109;SDS011;59983;52.010;5.420;2022-12-07T14:52:03;7.63;;;4.97;;
72109;SDS011;59983;52.010;5.420;2022-12-07T14:54:52;5.73;;;5.43;;
72109;SDS011;59983;52.010;5.420;2022-12-07T14:57:19;5.60;;;5.15;;
72109;SDS011;59983;52.010;5.420;2022-12-07T14:59:45;4.72;;;4.25;;
72109;SDS011;59983;52.010;5.420;2022-12-07T15:02:12;6.05;;;5.47;;
72109;SDS011;59983;52.010;5.420;2022-12-07T15:04:40;5.68;;;5.40;;
72109;SDS011;59983;52.010;5.420;2022-12-07T15:07:10;5.30;;;5.00;;
72109;SDS011;59983;52.010;5.420;2022-12-07T15:09:44;5.10;;;4.72;;
72109;SDS011;59983;52.010;5.420;2022-12-07T15:12:10;4.47;;;4.38;;
72109;SDS011;59983;52.010;5.420;2022-12-07T15:14:37;4.47;;;4.28;;
72109;SDS011;59983;52.010;5.420;2022-12-07T15:17:04;5.60;;;5.20;;
72109;SDS011;59983;52.010;5.420;2022-12-07T15:19:39;7.00;;;5.40;;
72109;SDS011;59983;52.010;5.420;2022-12-07T15:22:07;5.32;;;4.82;;
72109;SDS011;59983;52.010;5.420;2022-12-07T15:24:34;5.45;;;5.15;;
72109;SDS011;59983;52.010;5.420;2022-12-07T15:27:00;4.97;;;4.50;;
72109;SDS011;59983;52.010;5.420;2022-12-07T15:29:27;6.43;;;6.00;;
72109;SDS011;59983;52.010;5.420;2022-12-07T15:31:54;6.43;;;6.13;;
72109;SDS011;59983;52.010;5.420;2022-12-07T15:34:26;6.57;;;6.18;;
72109;SDS011;59983;52.010;5.420;2022-12-07T15:37:04;6.57;;;6.15;;
72109;SDS011;59983;52.010;5.420;2022-12-07T15:39:31;6.57;;;6.13;;
72109;SDS011;59983;52.010;5.420;2022-12-07T15:41:58;6.18;;;5.90;;
72109;SDS011;59983;52.010;5.420;2022-12-07T15:44:24;6.70;;;6.07;;
72109;SDS011;59983;52.010;5.420;2022-12-07T15:47:09;5.95;;;5.65;;
72109;SDS011;59983;52.010;5.420;2022-12-07T15:49:36;6.07;;;5.78;;
72109;SDS011;59983;52.010;5.420;2022-12-07T15:52:02;6.43;;;6.13;;
72109;SDS011;59983;52.010;5.420;2022-12-07T15:54:29;5.05;;;4.85;;
72109;SDS011;59983;52.010;5.420;2022-12-07T15:56:56;5.63;;;5.33;;
72109;SDS011;59983;52.010;5.420;2022-12-07T15:59:22;5.93;;;5.28;;
72109;SDS011;59983;52.010;5.420;2022-12-07T16:01:49;5.70;;;5.22;;
72109;SDS011;59983;52.010;5.420;2022-12-07T16:04:16;6.47;;;6.18;;
72109;SDS011;59983;52.010;5.420;2022-12-07T16:06:43;5.53;;;5.28;;
72109;SDS011;59983;52.010;5.420;2022-12-07T16:09:09;6.03;;;5.73;;
72109;SDS011;59983;52.010;5.420;2022-12-07T16:11:36;6.00;;;5.75;;
72109;SDS011;59983;52.010;5.420;2022-12-07T16:14:02;6.25;;;6.05;;
72109;SDS011;59983;52.010;5.420;2022-12-07T16:16:29;5.97;;;5.63;;
72109;SDS011;59983;52.010;5.420;2022-12-07T16:18:57;6.35;;;5.80;;
72109;SDS011;59983;52.010;5.420;2022-12-07T16:21:23;6.77;;;6.00;;
72109;SDS011;59983;52.010;5.420;2022-12-07T16:23:51;6.72;;;6.13;;
72109;SDS011;59983;52.010;5.420;2022-12-07T16:26:19;6.45;;;6.07;;
72109;SDS011;59983;52.010;5.420;2022-12-07T16:28:50;5.60;;;5.30;;
72109;SDS011;59983;52.010;5.420;2022-12-07T16:31:19;6.05;;;5.68;;
72109;SDS011;59983;52.010;5.420;2022-12-07T16:33:47;6.80;;;6.20;;
72109;SDS011;59983;52.010;5.420;2022-12-07T16:36:15;6.65;;;6.15;;
72109;SDS011;59983;52.010;5.420;2022-12-07T16:39:02;5.95;;;5.55;;
72109;SDS011;59983;52.010;5.420;2022-12-07T16:41:30;6.00;;;5.70;;
72109;SDS011;59983;52.010;5.420;2022-12-07T16:43:57;7.18;;;6.78;;
72109;SDS011;59983;52.010;5.420;2022-12-07T16:46:23;7.00;;;6.40;;
72109;SDS011;59983;52.010;5.420;2022-12-07T16:48:50;5.93;;;5.63;;
72109;SDS011;59983;52.010;5.420;2022-12-07T16:51:16;7.18;;;6.47;;
72109;SDS011;59983;52.010;5.420;2022-12-07T16:53:43;6.90;;;6.55;;
72109;SDS011;59983;52.010;5.420;2022-12-07T16:56:13;6.82;;;6.20;;